Stone Cabin, Nevada Weather observations

Data are for observation ending at time listed.
 Day   Time    Ave.   Ave.  Ave.  Vector   Max.   Stn.    Total    Solar   Ave.  
  of    of     Air    Rel.  Wind   Wind    Wind   Baro.  Precip.   Rad.    Soil  
Year   Day     Temp.  Hum.  Speed  Dir.    Gust   Pres.                    Temp. 
2016   (PST)    F      %     mph   deg.    mph     mb.     in.     W/m2     F   
------------------------------------------------------------------------------
 209    3:00   54.8    24    0.1   277      2.6    818     0.00       0    69.9
 209    4:00   53.2    27    0.5   301      2.7    817     0.00       0    69.3
 209    5:00   52.8    27    1.0   300      4.1    820     0.00       2    68.7
 209    6:00   54.4    27    0.2   290      3.1    823     0.00      22    68.2
 209    7:00   63.7    24    0.0   296      1.8    823     0.00     150    67.9
 209    8:00   80.0    16    0.0   291      0.7    821     0.00     497    68.1
 209    9:00   89.7    10    0.2   133      3.1    822     0.00     701    69.5
 209   10:00   93.7     9    0.6   158     15.1    824     0.00     866    71.5
 209   11:00   95.3     9    1.4   159      8.1    822     0.00     979    73.7
 209   12:00   96.2     9    1.6   234     10.3    823     0.00    1027    75.9
 209   13:00   96.4     9    4.1   202     12.7    820     0.00    1018    77.4
 209   14:00   97.3     9    4.2   202     20.9    821     0.00     944    77.2
 209   15:00   97.5     9    5.6   258     16.4    819     0.00     817    77.7
 209   16:00   97.2     9    3.4   246     12.8    820     0.00     658    78.3
 209   17:00   96.6     9    4.2   234     13.4    821     0.00     431    78.2
 209   18:00   95.1     9    4.3   265     13.2    821     0.00     224    78.0
 209   19:00   90.2    10    1.5   260      7.4    822     0.00      39    77.6
 209   20:00   80.7    14    0.0   214      1.6    822     0.00       1    76.9
 209   21:00   74.8    17    0.1   277      2.6    821     0.00       1    75.8
 209   22:00   75.5    19    0.1    97      2.1    823     0.00       0    74.8
 209   23:00   74.7    19    0.8     4      7.2    824     0.00       0    74.0
 210    0:00   69.9    21    1.1   314      6.1    824     0.00       0    73.4
 210    1:00   65.3    25    0.3   313      4.5    822     0.00       0    72.8
 210    2:00   61.8    28    0.1   311      3.2    823     0.00       0    72.2

Return to Stone Cabin, Nevada graphs page.


Western Regional Climate Center,wrcc@dri.edu